sensor_id;sensor_type;location;lat;lon;timestamp;temperature;humidity
8481;DHT22;4277;51.354;6.740;2022-09-02T07:40:55;19.70;29.50
8481;DHT22;4277;51.354;6.740;2022-09-02T07:43:20;20.00;36.70
8481;DHT22;4277;51.354;6.740;2022-09-02T07:45:47;20.00;19.00
8481;DHT22;4277;51.354;6.740;2022-09-02T07:48:14;19.90;18.90
8481;DHT22;4277;51.354;6.740;2022-09-02T07:50:40;19.90;19.70
8481;DHT22;4277;51.354;6.740;2022-09-02T07:55:35;20.00;18.50
8481;DHT22;4277;51.354;6.740;2022-09-02T08:07:46;20.30;25.90
8481;DHT22;4277;51.354;6.740;2022-09-02T08:10:12;20.60;14.30
8481;DHT22;4277;51.354;6.740;2022-09-02T08:12:40;20.50;15.20
8481;DHT22;4277;51.354;6.740;2022-09-02T08:15:07;20.70;13.90
8481;DHT22;4277;51.354;6.740;2022-09-02T08:17:33;20.50;15.40
8481;DHT22;4277;51.354;6.740;2022-09-02T08:19:59;20.50;15.20
8481;DHT22;4277;51.354;6.740;2022-09-02T08:22:29;20.70;14.80
8481;DHT22;4277;51.354;6.740;2022-09-02T08:29:50;20.90;14.10
8481;DHT22;4277;51.354;6.740;2022-09-02T08:32:16;20.90;15.20
8481;DHT22;4277;51.354;6.740;2022-09-02T08:34:41;21.10;12.60
8481;DHT22;4277;51.354;6.740;2022-09-02T08:37:07;21.10;13.50
8481;DHT22;4277;51.354;6.740;2022-09-02T08:39:33;21.00;13.90
8481;DHT22;4277;51.354;6.740;2022-09-02T08:44:32;21.00;13.60
8481;DHT22;4277;51.354;6.740;2022-09-02T08:47:01;21.00;12.70
8481;DHT22;4277;51.354;6.740;2022-09-02T08:49:34;21.20;12.00
8481;DHT22;4277;51.354;6.740;2022-09-02T08:52:03;21.20;12.20
8481;DHT22;4277;51.354;6.740;2022-09-02T08:54:52;21.40;11.10
8481;DHT22;4277;51.354;6.740;2022-09-02T08:57:25;21.50;8.60
8481;DHT22;4277;51.354;6.740;2022-09-02T08:59:54;21.50;9.30
8481;DHT22;4277;51.354;6.740;2022-09-02T09:05:20;21.60;6.90
8481;DHT22;4277;51.354;6.740;2022-09-02T09:10:58;21.80;5.70
8481;DHT22;4277;51.354;6.740;2022-09-02T09:16:03;21.90;6.40
8481;DHT22;4277;51.354;6.740;2022-09-02T09:18:42;22.00;3.70
8481;DHT22;4277;51.354;6.740;2022-09-02T09:21:10;22.10;2.70
8481;DHT22;4277;51.354;6.740;2022-09-02T09:23:39;22.00;5.10
8481;DHT22;4277;51.354;6.740;2022-09-02T09:26:16;22.00;5.60
8481;DHT22;4277;51.354;6.740;2022-09-02T09:28:45;21.90;5.50
8481;DHT22;4277;51.354;6.740;2022-09-02T09:31:20;22.00;4.60
8481;DHT22;4277;51.354;6.740;2022-09-02T09:34:00;21.90;5.90
8481;DHT22;4277;51.354;6.740;2022-09-02T09:36:51;21.90;5.70
8481;DHT22;4277;51.354;6.740;2022-09-02T09:39:22;22.00;5.20
8481;DHT22;4277;51.354;6.740;2022-09-02T09:41:50;22.20;1.00
8481;DHT22;4277;51.354;6.740;2022-09-02T09:49:36;22.50;1.00
8481;DHT22;4277;51.354;6.740;2022-09-02T09:52:02;22.40;2.60
8481;DHT22;4277;51.354;6.740;2022-09-02T09:54:28;22.70;1.00
8481;DHT22;4277;51.354;6.740;2022-09-02T09:56:54;22.70;1.00
8481;DHT22;4277;51.354;6.740;2022-09-02T09:59:39;22.90;1.00
8481;DHT22;4277;51.354;6.740;2022-09-02T10:02:22;22.90;1.00
8481;DHT22;4277;51.354;6.740;2022-09-02T10:07:38;23.00;1.00
8481;DHT22;4277;51.354;6.740;2022-09-02T10:10:16;23.40;1.00
8481;DHT22;4277;51.354;6.740;2022-09-02T10:13:35;23.40;1.00
8481;DHT22;4277;51.354;6.740;2022-09-02T10:30:23;23.40;1.00
8481;DHT22;4277;51.354;6.740;2022-09-02T10:35:45;23.70;1.00
8481;DHT22;4277;51.354;6.740;2022-09-02T10:38:26;23.80;1.00
8481;DHT22;4277;51.354;6.740;2022-09-02T11:09:51;24.40;1.00
8481;DHT22;4277;51.354;6.740;2022-09-02T11:12:39;24.40;1.00
8481;DHT22;4277;51.354;6.740;2022-09-02T11:15:11;24.40;1.00
8481;DHT22;4277;51.354;6.740;2022-09-02T11:17:47;24.30;1.00
8481;DHT22;4277;51.354;6.740;2022-09-02T11:20:43;24.30;1.00
8481;DHT22;4277;51.354;6.740;2022-09-02T11:23:19;24.30;1.00
8481;DHT22;4277;51.354;6.740;2022-09-02T11:28:47;23.90;1.00
8481;DHT22;4277;51.354;6.740;2022-09-02T11:31:42;23.90;1.00
8481;DHT22;4277;51.354;6.740;2022-09-02T11:34:35;23.90;1.00
8481;DHT22;4277;51.354;6.740;2022-09-02T11:37:03;24.00;1.00
8481;DHT22;4277;51.354;6.740;2022-09-02T11:39:42;24.00;1.00
8481;DHT22;4277;51.354;6.740;2022-09-02T11:45:27;24.00;1.00
8481;DHT22;4277;51.354;6.740;2022-09-02T12:14:07;24.60;1.00
8481;DHT22;4277;51.354;6.740;2022-09-02T12:16:36;25.10;1.00
8481;DHT22;4277;51.354;6.740;2022-09-02T12:21:33;25.50;1.00
8481;DHT22;4277;51.354;6.740;2022-09-02T12:24:14;25.80;1.00
8481;DHT22;4277;51.354;6.740;2022-09-02T12:29:32;25.70;1.00
8481;DHT22;4277;51.354;6.740;2022-09-02T12:31:58;25.90;1.00
8481;DHT22;4277;51.354;6.740;2022-09-02T12:37:00;26.00;1.00
8481;DHT22;4277;51.354;6.740;2022-09-02T12:41:57;25.50;1.00
8481;DHT22;4277;51.354;6.740;2022-09-02T12:47:22;26.20;1.00
8481;DHT22;4277;51.354;6.740;2022-09-02T13:00:06;26.50;1.00
8481;DHT22;4277;51.354;6.740;2022-09-02T13:02:51;26.00;1.00
8481;DHT22;4277;51.354;6.740;2022-09-02T13:05:52;26.20;1.00
8481;DHT22;4277;51.354;6.740;2022-09-02T13:14:40;26.50;1.00
8481;DHT22;4277;51.354;6.740;2022-09-02T13:17:28;26.20;1.00
8481;DHT22;4277;51.354;6.740;2022-09-02T13:31:41;26.50;1.00
8481;DHT22;4277;51.354;6.740;2022-09-02T13:34:11;26.70;1.00
8481;DHT22;4277;51.354;6.740;2022-09-02T13:36:42;26.90;1.00
8481;DHT22;4277;51.354;6.740;2022-09-02T13:39:29;27.20;1.00
8481;DHT22;4277;51.354;6.740;2022-09-02T13:41:55;27.20;1.00
8481;DHT22;4277;51.354;6.740;2022-09-02T13:44:26;27.20;1.00
8481;DHT22;4277;51.354;6.740;2022-09-02T13:47:02;27.20;1.00
8481;DHT22;4277;51.354;6.740;2022-09-02T13:49:38;27.20;1.00
8481;DHT22;4277;51.354;6.740;2022-09-02T13:52:16;27.20;1.00
8481;DHT22;4277;51.354;6.740;2022-09-02T13:54:49;27.20;1.00
8481;DHT22;4277;51.354;6.740;2022-09-02T13:57:26;27.40;1.00
8481;DHT22;4277;51.354;6.740;2022-09-02T13:59:54;27.20;1.00
8481;DHT22;4277;51.354;6.740;2022-09-02T14:02:32;27.40;1.00
8481;DHT22;4277;51.354;6.740;2022-09-02T14:07:46;27.20;1.00
8481;DHT22;4277;51.354;6.740;2022-09-02T14:10:30;27.30;1.00
8481;DHT22;4277;51.354;6.740;2022-09-02T14:13:00;27.30;1.00
8481;DHT22;4277;51.354;6.740;2022-09-02T14:15:28;27.40;1.00
8481;DHT22;4277;51.354;6.740;2022-09-02T14:18:14;26.70;1.00
8481;DHT22;4277;51.354;6.740;2022-09-02T14:20:55;26.80;1.00
8481;DHT22;4277;51.354;6.740;2022-09-02T14:23:22;27.10;1.00
8481;DHT22;4277;51.354;6.740;2022-09-02T14:26:04;27.00;1.00
8481;DHT22;4277;51.354;6.740;2022-09-02T14:28:32;26.70;1.00
8481;DHT22;4277;51.354;6.740;2022-09-02T14:31:06;26.60;1.00
8481;DHT22;4277;51.354;6.740;2022-09-02T14:33:45;26.70;1.00
8481;DHT22;4277;51.354;6.740;2022-09-02T14:36:35;26.90;1.00
8481;DHT22;4277;51.354;6.740;2022-09-02T14:39:13;26.90;1.00
8481;DHT22;4277;51.354;6.740;2022-09-02T14:41:50;27.10;1.00
8481;DHT22;4277;51.354;6.740;2022-09-02T14:44:30;27.20;1.00
8481;DHT22;4277;51.354;6.740;2022-09-02T14:47:00;27.20;1.00
8481;DHT22;4277;51.354;6.740;2022-09-02T14:49:31;27.20;1.00
8481;DHT22;4277;51.354;6.740;2022-09-02T14:51:59;27.10;1.00
8481;DHT22;4277;51.354;6.740;2022-09-02T14:54:45;27.10;1.00
8481;DHT22;4277;51.354;6.740;2022-09-02T14:57:30;27.20;1.00
8481;DHT22;4277;51.354;6.740;2022-09-02T15:00:07;27.10;1.00
8481;DHT22;4277;51.354;6.740;2022-09-02T15:02:35;27.30;1.00
8481;DHT22;4277;51.354;6.740;2022-09-02T15:05:05;27.10;1.00
8481;DHT22;4277;51.354;6.740;2022-09-02T15:07:31;27.10;1.00
8481;DHT22;4277;51.354;6.740;2022-09-02T15:09:57;27.20;1.00
8481;DHT22;4277;51.354;6.740;2022-09-02T15:12:33;27.30;1.00
8481;DHT22;4277;51.354;6.740;2022-09-02T15:15:00;27.20;1.00
8481;DHT22;4277;51.354;6.740;2022-09-02T15:17:25;27.30;1.00
8481;DHT22;4277;51.354;6.740;2022-09-02T15:19:51;27.20;1.00
8481;DHT22;4277;51.354;6.740;2022-09-02T15:22:17;27.10;1.00
8481;DHT22;4277;51.354;6.740;2022-09-02T15:24:44;27.00;1.00
8481;DHT22;4277;51.354;6.740;2022-09-02T15:27:11;27.20;1.00
8481;DHT22;4277;51.354;6.740;2022-09-02T15:29:37;27.10;1.00
8481;DHT22;4277;51.354;6.740;2022-09-02T15:32:04;27.20;1.00
8481;DHT22;4277;51.354;6.740;2022-09-02T15:34:31;27.30;1.00
8481;DHT22;4277;51.354;6.740;2022-09-02T15:36:57;27.30;1.00
8481;DHT22;4277;51.354;6.740;2022-09-02T15:39:23;27.30;1.00
8481;DHT22;4277;51.354;6.740;2022-09-02T15:41:50;27.20;1.00
8481;DHT22;4277;51.354;6.740;2022-09-02T15:44:16;27.20;1.00
8481;DHT22;4277;51.354;6.740;2022-09-02T15:46:43;26.90;1.00
8481;DHT22;4277;51.354;6.740;2022-09-02T15:49:11;26.90;1.00
8481;DHT22;4277;51.354;6.740;2022-09-02T15:51:38;26.80;1.00
8481;DHT22;4277;51.354;6.740;2022-09-02T15:54:08;26.60;1.00
8481;DHT22;4277;51.354;6.740;2022-09-02T15:56:36;26.60;1.00
8481;DHT22;4277;51.354;6.740;2022-09-02T15:59:03;26.60;1.00
8481;DHT22;4277;51.354;6.740;2022-09-02T16:01:34;26.60;1.00
8481;DHT22;4277;51.354;6.740;2022-09-02T16:04:02;26.80;1.00
8481;DHT22;4277;51.354;6.740;2022-09-02T16:06:28;27.00;1.00
8481;DHT22;4277;51.354;6.740;2022-09-02T16:08:54;27.20;1.00
8481;DHT22;4277;51.354;6.740;2022-09-02T16:11:20;26.90;1.00
8481;DHT22;4277;51.354;6.740;2022-09-02T16:13:46;26.90;1.00
8481;DHT22;4277;51.354;6.740;2022-09-02T16:16:12;27.40;1.00
8481;DHT22;4277;51.354;6.740;2022-09-02T16:18:39;27.60;1.00
8481;DHT22;4277;51.354;6.740;2022-09-02T16:21:07;27.50;1.00
8481;DHT22;4277;51.354;6.740;2022-09-02T16:23:34;27.60;1.00
8481;DHT22;4277;51.354;6.740;2022-09-02T16:26:12;27.30;1.00
8481;DHT22;4277;51.354;6.740;2022-09-02T16:28:43;27.10;1.00
8481;DHT22;4277;51.354;6.740;2022-09-02T16:31:12;27.30;1.00
8481;DHT22;4277;51.354;6.740;2022-09-02T16:33:38;27.40;1.00
8481;DHT22;4277;51.354;6.740;2022-09-02T16:38:32;27.50;1.00
8481;DHT22;4277;51.354;6.740;2022-09-02T16:40:59;27.60;1.00
8481;DHT22;4277;51.354;6.740;2022-09-02T16:43:25;27.50;1.00
8481;DHT22;4277;51.354;6.740;2022-09-02T16:48:18;27.10;1.00
8481;DHT22;4277;51.354;6.740;2022-09-02T16:50:45;26.60;1.00
8481;DHT22;4277;51.354;6.740;2022-09-02T16:53:11;26.30;1.00
8481;DHT22;4277;51.354;6.740;2022-09-02T16:55:41;25.80;1.00
8481;DHT22;4277;51.354;6.740;2022-09-02T16:58:08;25.80;1.00
8481;DHT22;4277;51.354;6.740;2022-09-02T17:00:39;25.80;1.00
8481;DHT22;4277;51.354;6.740;2022-09-02T17:03:06;25.70;1.00
8481;DHT22;4277;51.354;6.740;2022-09-02T17:05:32;25.50;1.00
8481;DHT22;4277;51.354;6.740;2022-09-02T17:07:58;25.50;1.00
8481;DHT22;4277;51.354;6.740;2022-09-02T17:10:26;25.50;1.00
8481;DHT22;4277;51.354;6.740;2022-09-02T17:12:53;25.30;1.00
8481;DHT22;4277;51.354;6.740;2022-09-02T17:15:20;25.20;1.00
8481;DHT22;4277;51.354;6.740;2022-09-02T17:17:45;25.20;1.00
8481;DHT22;4277;51.354;6.740;2022-09-02T17:20:11;25.20;1.00
8481;DHT22;4277;51.354;6.740;2022-09-02T17:22:38;25.30;1.00
8481;DHT22;4277;51.354;6.740;2022-09-02T17:25:05;25.20;1.00
8481;DHT22;4277;51.354;6.740;2022-09-02T17:27:31;25.10;1.00
8481;DHT22;4277;51.354;6.740;2022-09-02T17:29:57;25.10;1.00
8481;DHT22;4277;51.354;6.740;2022-09-02T17:32:25;25.10;1.00
8481;DHT22;4277;51.354;6.740;2022-09-02T17:34:51;25.00;1.00
8481;DHT22;4277;51.354;6.740;2022-09-02T17:37:18;24.90;1.00
8481;DHT22;4277;51.354;6.740;2022-09-02T17:39:43;24.90;1.00
8481;DHT22;4277;51.354;6.740;2022-09-02T17:42:10;24.90;1.00
8481;DHT22;4277;51.354;6.740;2022-09-02T17:44:37;24.80;1.00
8481;DHT22;4277;51.354;6.740;2022-09-02T17:47:07;24.70;1.00
8481;DHT22;4277;51.354;6.740;2022-09-02T17:49:35;24.70;1.00
8481;DHT22;4277;51.354;6.740;2022-09-02T17:52:04;24.50;1.00
8481;DHT22;4277;51.354;6.740;2022-09-02T17:54:33;24.50;1.00
8481;DHT22;4277;51.354;6.740;2022-09-02T17:57:21;24.50;1.00
8481;DHT22;4277;51.354;6.740;2022-09-02T18:05:40;24.20;1.00
8481;DHT22;4277;51.354;6.740;2022-09-02T18:11:13;24.00;1.00
8481;DHT22;4277;51.354;6.740;2022-09-02T18:19:32;23.80;1.00
8481;DHT22;4277;51.354;6.740;2022-09-02T18:25:32;23.60;1.00
8481;DHT22;4277;51.354;6.740;2022-09-02T18:30:46;23.40;1.00
